sensor_id;sensor_type;location;lat;lon;timestamp;P1;durP1;ratioP1;P2;durP2;ratioP2
16906;SDS011;8570;52.380;4.654;2023-07-29T00:02:55;5.80;;;2.17;;
16906;SDS011;8570;52.380;4.654;2023-07-29T00:07:57;9.95;;;2.20;;
16906;SDS011;8570;52.380;4.654;2023-07-29T00:13:03;6.30;;;2.35;;
16906;SDS011;8570;52.380;4.654;2023-07-29T00:18:05;6.38;;;2.10;;
16906;SDS011;8570;52.380;4.654;2023-07-29T00:23:07;4.55;;;1.90;;
16906;SDS011;8570;52.380;4.654;2023-07-29T00:28:10;10.77;;;2.28;;
16906;SDS011;8570;52.380;4.654;2023-07-29T00:33:13;3.20;;;1.70;;
16906;SDS011;8570;52.380;4.654;2023-07-29T00:38:15;7.95;;;2.10;;
16906;SDS011;8570;52.380;4.654;2023-07-29T00:43:18;5.80;;;1.40;;
16906;SDS011;8570;52.380;4.654;2023-07-29T00:48:20;6.65;;;1.90;;
16906;SDS011;8570;52.380;4.654;2023-07-29T00:53:25;4.35;;;1.83;;
16906;SDS011;8570;52.380;4.654;2023-07-29T00:58:29;4.90;;;1.85;;
16906;SDS011;8570;52.380;4.654;2023-07-29T01:03:31;4.88;;;1.98;;
16906;SDS011;8570;52.380;4.654;2023-07-29T01:08:36;4.30;;;2.00;;
16906;SDS011;8570;52.380;4.654;2023-07-29T01:13:59;4.82;;;1.90;;
16906;SDS011;8570;52.380;4.654;2023-07-29T01:19:05;3.83;;;2.10;;
16906;SDS011;8570;52.380;4.654;2023-07-29T01:24:09;7.95;;;2.55;;
16906;SDS011;8570;52.380;4.654;2023-07-29T01:29:12;5.82;;;2.30;;
16906;SDS011;8570;52.380;4.654;2023-07-29T01:34:16;8.07;;;2.15;;
16906;SDS011;8570;52.380;4.654;2023-07-29T01:39:26;7.47;;;2.80;;
16906;SDS011;8570;52.380;4.654;2023-07-29T01:44:33;6.95;;;2.30;;
16906;SDS011;8570;52.380;4.654;2023-07-29T01:49:36;5.95;;;2.50;;
16906;SDS011;8570;52.380;4.654;2023-07-29T01:54:40;5.93;;;2.63;;
16906;SDS011;8570;52.380;4.654;2023-07-29T01:59:42;5.60;;;2.20;;
16906;SDS011;8570;52.380;4.654;2023-07-29T02:04:44;4.53;;;2.35;;
16906;SDS011;8570;52.380;4.654;2023-07-29T02:09:52;10.13;;;2.50;;
16906;SDS011;8570;52.380;4.654;2023-07-29T02:14:54;11.70;;;2.50;;
16906;SDS011;8570;52.380;4.654;2023-07-29T02:19:56;6.68;;;2.50;;
16906;SDS011;8570;52.380;4.654;2023-07-29T02:25:06;7.15;;;2.50;;
16906;SDS011;8570;52.380;4.654;2023-07-29T02:30:10;12.30;;;2.92;;
16906;SDS011;8570;52.380;4.654;2023-07-29T02:35:12;8.10;;;2.40;;
16906;SDS011;8570;52.380;4.654;2023-07-29T02:40:31;7.30;;;2.50;;
16906;SDS011;8570;52.380;4.654;2023-07-29T02:45:33;7.20;;;2.45;;
16906;SDS011;8570;52.380;4.654;2023-07-29T02:50:34;6.32;;;2.42;;
16906;SDS011;8570;52.380;4.654;2023-07-29T02:55:40;6.45;;;2.63;;
16906;SDS011;8570;52.380;4.654;2023-07-29T03:00:42;9.68;;;2.70;;
16906;SDS011;8570;52.380;4.654;2023-07-29T03:05:44;8.82;;;2.75;;
16906;SDS011;8570;52.380;4.654;2023-07-29T03:10:47;7.07;;;2.30;;
16906;SDS011;8570;52.380;4.654;2023-07-29T03:15:49;6.07;;;2.40;;
16906;SDS011;8570;52.380;4.654;2023-07-29T03:20:52;5.78;;;2.58;;
16906;SDS011;8570;52.380;4.654;2023-07-29T03:25:58;9.82;;;2.80;;
16906;SDS011;8570;52.380;4.654;2023-07-29T03:31:01;7.60;;;3.10;;
16906;SDS011;8570;52.380;4.654;2023-07-29T03:36:04;7.68;;;3.15;;
16906;SDS011;8570;52.380;4.654;2023-07-29T03:41:07;11.05;;;3.30;;
16906;SDS011;8570;52.380;4.654;2023-07-29T03:46:11;8.40;;;2.65;;
16906;SDS011;8570;52.380;4.654;2023-07-29T03:51:13;5.00;;;2.85;;
16906;SDS011;8570;52.380;4.654;2023-07-29T03:56:17;9.32;;;2.90;;
16906;SDS011;8570;52.380;4.654;2023-07-29T04:01:19;11.55;;;3.00;;
16906;SDS011;8570;52.380;4.654;2023-07-29T04:06:21;6.20;;;3.00;;
16906;SDS011;8570;52.380;4.654;2023-07-29T04:11:26;5.93;;;2.70;;
16906;SDS011;8570;52.380;4.654;2023-07-29T04:16:28;11.18;;;2.90;;
16906;SDS011;8570;52.380;4.654;2023-07-29T04:21:30;9.25;;;3.05;;
16906;SDS011;8570;52.380;4.654;2023-07-29T04:26:33;5.80;;;2.92;;
16906;SDS011;8570;52.380;4.654;2023-07-29T04:31:35;9.70;;;2.35;;
16906;SDS011;8570;52.380;4.654;2023-07-29T04:36:37;7.03;;;2.25;;
16906;SDS011;8570;52.380;4.654;2023-07-29T04:41:41;5.13;;;2.10;;
16906;SDS011;8570;52.380;4.654;2023-07-29T04:46:43;6.40;;;2.05;;
16906;SDS011;8570;52.380;4.654;2023-07-29T04:51:45;9.55;;;2.35;;
16906;SDS011;8570;52.380;4.654;2023-07-29T04:56:48;8.98;;;2.42;;
16906;SDS011;8570;52.380;4.654;2023-07-29T05:01:50;7.05;;;2.22;;
16906;SDS011;8570;52.380;4.654;2023-07-29T05:06:55;7.47;;;2.65;;
16906;SDS011;8570;52.380;4.654;2023-07-29T05:12:01;7.78;;;3.00;;
16906;SDS011;8570;52.380;4.654;2023-07-29T05:17:04;10.27;;;2.58;;
16906;SDS011;8570;52.380;4.654;2023-07-29T05:22:07;10.70;;;2.97;;
16906;SDS011;8570;52.380;4.654;2023-07-29T05:27:11;10.60;;;2.45;;
16906;SDS011;8570;52.380;4.654;2023-07-29T05:32:13;15.32;;;3.00;;
16906;SDS011;8570;52.380;4.654;2023-07-29T05:37:15;10.30;;;2.47;;
16906;SDS011;8570;52.380;4.654;2023-07-29T05:42:19;8.98;;;2.53;;
16906;SDS011;8570;52.380;4.654;2023-07-29T05:47:24;10.25;;;2.70;;
16906;SDS011;8570;52.380;4.654;2023-07-29T05:52:26;10.45;;;2.53;;
16906;SDS011;8570;52.380;4.654;2023-07-29T05:57:29;13.98;;;2.55;;
16906;SDS011;8570;52.380;4.654;2023-07-29T06:02:31;15.38;;;2.97;;
16906;SDS011;8570;52.380;4.654;2023-07-29T06:07:33;6.20;;;2.20;;
16906;SDS011;8570;52.380;4.654;2023-07-29T06:12:39;6.70;;;2.60;;
16906;SDS011;8570;52.380;4.654;2023-07-29T06:17:44;5.88;;;2.50;;
16906;SDS011;8570;52.380;4.654;2023-07-29T06:22:46;9.50;;;2.63;;
16906;SDS011;8570;52.380;4.654;2023-07-29T06:27:49;8.07;;;2.20;;
16906;SDS011;8570;52.380;4.654;2023-07-29T06:32:51;5.53;;;2.33;;
16906;SDS011;8570;52.380;4.654;2023-07-29T06:37:53;13.20;;;2.72;;
16906;SDS011;8570;52.380;4.654;2023-07-29T06:42:57;8.77;;;2.53;;
16906;SDS011;8570;52.380;4.654;2023-07-29T06:47:59;9.35;;;2.42;;
16906;SDS011;8570;52.380;4.654;2023-07-29T06:53:01;6.80;;;2.45;;
16906;SDS011;8570;52.380;4.654;2023-07-29T06:58:06;6.95;;;2.08;;
16906;SDS011;8570;52.380;4.654;2023-07-29T07:03:09;6.03;;;2.20;;
16906;SDS011;8570;52.380;4.654;2023-07-29T07:08:11;10.02;;;2.40;;
16906;SDS011;8570;52.380;4.654;2023-07-29T07:13:14;9.35;;;2.47;;
16906;SDS011;8570;52.380;4.654;2023-07-29T07:18:16;4.68;;;2.15;;
16906;SDS011;8570;52.380;4.654;2023-07-29T07:23:18;7.88;;;2.00;;
16906;SDS011;8570;52.380;4.654;2023-07-29T07:28:22;9.75;;;2.33;;
16906;SDS011;8570;52.380;4.654;2023-07-29T07:33:24;10.95;;;2.97;;
16906;SDS011;8570;52.380;4.654;2023-07-29T07:38:28;6.88;;;2.20;;
16906;SDS011;8570;52.380;4.654;2023-07-29T07:43:34;10.70;;;1.75;;
16906;SDS011;8570;52.380;4.654;2023-07-29T07:48:37;6.28;;;2.05;;
16906;SDS011;8570;52.380;4.654;2023-07-29T07:53:39;6.97;;;2.17;;
16906;SDS011;8570;52.380;4.654;2023-07-29T07:58:43;7.97;;;2.20;;
16906;SDS011;8570;52.380;4.654;2023-07-29T08:03:45;7.70;;;2.10;;
16906;SDS011;8570;52.380;4.654;2023-07-29T08:08:47;7.07;;;2.28;;
16906;SDS011;8570;52.380;4.654;2023-07-29T08:13:51;7.60;;;2.38;;
16906;SDS011;8570;52.380;4.654;2023-07-29T08:18:53;7.90;;;2.95;;
16906;SDS011;8570;52.380;4.654;2023-07-29T08:23:55;10.43;;;3.15;;
16906;SDS011;8570;52.380;4.654;2023-07-29T08:28:58;10.48;;;3.00;;
16906;SDS011;8570;52.380;4.654;2023-07-29T08:34:00;7.80;;;2.58;;
16906;SDS011;8570;52.380;4.654;2023-07-29T08:39:02;10.10;;;3.00;;
16906;SDS011;8570;52.380;4.654;2023-07-29T08:44:09;10.32;;;2.53;;
16906;SDS011;8570;52.380;4.654;2023-07-29T08:49:18;9.23;;;2.55;;
16906;SDS011;8570;52.380;4.654;2023-07-29T08:54:20;7.90;;;3.15;;
16906;SDS011;8570;52.380;4.654;2023-07-29T08:59:26;10.90;;;2.92;;
16906;SDS011;8570;52.380;4.654;2023-07-29T09:04:30;10.55;;;2.95;;
16906;SDS011;8570;52.380;4.654;2023-07-29T09:09:32;7.43;;;2.70;;
16906;SDS011;8570;52.380;4.654;2023-07-29T09:14:43;7.57;;;2.35;;
16906;SDS011;8570;52.380;4.654;2023-07-29T09:19:52;6.05;;;2.63;;
16906;SDS011;8570;52.380;4.654;2023-07-29T09:24:56;7.53;;;2.53;;
16906;SDS011;8570;52.380;4.654;2023-07-29T09:30:00;5.68;;;2.70;;
16906;SDS011;8570;52.380;4.654;2023-07-29T09:35:12;5.93;;;2.50;;
16906;SDS011;8570;52.380;4.654;2023-07-29T09:40:20;10.80;;;2.80;;
16906;SDS011;8570;52.380;4.654;2023-07-29T09:45:29;8.35;;;2.67;;
16906;SDS011;8570;52.380;4.654;2023-07-29T09:50:34;8.95;;;2.80;;
16906;SDS011;8570;52.380;4.654;2023-07-29T09:55:36;8.77;;;2.75;;
16906;SDS011;8570;52.380;4.654;2023-07-29T10:00:41;7.22;;;2.80;;
16906;SDS011;8570;52.380;4.654;2023-07-29T10:05:43;11.10;;;2.60;;
16906;SDS011;8570;52.380;4.654;2023-07-29T10:10:46;11.35;;;2.80;;
16906;SDS011;8570;52.380;4.654;2023-07-29T10:15:52;9.82;;;2.95;;
16906;SDS011;8570;52.380;4.654;2023-07-29T10:20:58;10.38;;;2.90;;
16906;SDS011;8570;52.380;4.654;2023-07-29T10:26:02;13.93;;;3.53;;
16906;SDS011;8570;52.380;4.654;2023-07-29T10:31:06;6.35;;;2.20;;
16906;SDS011;8570;52.380;4.654;2023-07-29T10:36:09;11.77;;;3.38;;
16906;SDS011;8570;52.380;4.654;2023-07-29T10:41:11;8.80;;;2.88;;
16906;SDS011;8570;52.380;4.654;2023-07-29T10:46:18;6.03;;;2.30;;
16906;SDS011;8570;52.380;4.654;2023-07-29T10:51:24;6.63;;;2.28;;
16906;SDS011;8570;52.380;4.654;2023-07-29T10:56:32;8.02;;;2.90;;
16906;SDS011;8570;52.380;4.654;2023-07-29T11:01:39;5.25;;;2.35;;
16906;SDS011;8570;52.380;4.654;2023-07-29T11:12:33;6.40;;;2.33;;
16906;SDS011;8570;52.380;4.654;2023-07-29T11:17:43;6.80;;;1.77;;
16906;SDS011;8570;52.380;4.654;2023-07-29T11:22:46;4.97;;;1.77;;
16906;SDS011;8570;52.380;4.654;2023-07-29T11:27:48;6.80;;;2.03;;
16906;SDS011;8570;52.380;4.654;2023-07-29T11:32:53;9.52;;;2.00;;
16906;SDS011;8570;52.380;4.654;2023-07-29T11:37:56;6.40;;;2.03;;
16906;SDS011;8570;52.380;4.654;2023-07-29T11:42:58;8.40;;;2.05;;
16906;SDS011;8570;52.380;4.654;2023-07-29T11:48:02;9.07;;;1.92;;
16906;SDS011;8570;52.380;4.654;2023-07-29T11:53:04;7.85;;;1.60;;
16906;SDS011;8570;52.380;4.654;2023-07-29T11:58:10;3.40;;;1.55;;
16906;SDS011;8570;52.380;4.654;2023-07-29T12:03:13;5.40;;;1.67;;
16906;SDS011;8570;52.380;4.654;2023-07-29T12:08:20;4.30;;;1.23;;
16906;SDS011;8570;52.380;4.654;2023-07-29T12:13:23;5.50;;;1.10;;
16906;SDS011;8570;52.380;4.654;2023-07-29T12:18:30;2.13;;;1.10;;
16906;SDS011;8570;52.380;4.654;2023-07-29T12:23:33;1.77;;;0.90;;
16906;SDS011;8570;52.380;4.654;2023-07-29T12:28:36;1.15;;;0.82;;
16906;SDS011;8570;52.380;4.654;2023-07-29T12:33:40;2.78;;;1.08;;
16906;SDS011;8570;52.380;4.654;2023-07-29T12:38:42;5.80;;;1.40;;
16906;SDS011;8570;52.380;4.654;2023-07-29T12:43:44;4.32;;;1.13;;
16906;SDS011;8570;52.380;4.654;2023-07-29T12:48:48;3.67;;;1.10;;
16906;SDS011;8570;52.380;4.654;2023-07-29T12:53:50;2.08;;;0.80;;
16906;SDS011;8570;52.380;4.654;2023-07-29T12:58:52;2.58;;;1.05;;
16906;SDS011;8570;52.380;4.654;2023-07-29T13:03:55;4.13;;;1.00;;
16906;SDS011;8570;52.380;4.654;2023-07-29T13:08:59;3.88;;;1.85;;
16906;SDS011;8570;52.380;4.654;2023-07-29T13:14:01;3.17;;;1.13;;
16906;SDS011;8570;52.380;4.654;2023-07-29T13:19:05;2.95;;;1.10;;
16906;SDS011;8570;52.380;4.654;2023-07-29T13:24:07;2.70;;;0.90;;
16906;SDS011;8570;52.380;4.654;2023-07-29T13:29:09;7.15;;;1.88;;
16906;SDS011;8570;52.380;4.654;2023-07-29T13:34:15;4.00;;;1.30;;
16906;SDS011;8570;52.380;4.654;2023-07-29T13:39:17;2.97;;;1.30;;
16906;SDS011;8570;52.380;4.654;2023-07-29T13:44:19;2.88;;;1.33;;
16906;SDS011;8570;52.380;4.654;2023-07-29T13:49:22;3.88;;;1.50;;
16906;SDS011;8570;52.380;4.654;2023-07-29T13:54:25;2.63;;;1.45;;
16906;SDS011;8570;52.380;4.654;2023-07-29T13:59:28;3.10;;;1.80;;
16906;SDS011;8570;52.380;4.654;2023-07-29T14:04:32;6.22;;;1.80;;
16906;SDS011;8570;52.380;4.654;2023-07-29T14:09:35;3.97;;;1.20;;
16906;SDS011;8570;52.380;4.654;2023-07-29T14:14:38;4.85;;;2.25;;
16906;SDS011;8570;52.380;4.654;2023-07-29T14:19:41;5.70;;;1.50;;
16906;SDS011;8570;52.380;4.654;2023-07-29T14:24:43;2.95;;;1.27;;
16906;SDS011;8570;52.380;4.654;2023-07-29T14:29:45;3.85;;;1.45;;
16906;SDS011;8570;52.380;4.654;2023-07-29T14:40:08;6.13;;;1.70;;
16906;SDS011;8570;52.380;4.654;2023-07-29T14:45:28;3.55;;;1.65;;
16906;SDS011;8570;52.380;4.654;2023-07-29T14:50:39;5.78;;;1.83;;
16906;SDS011;8570;52.380;4.654;2023-07-29T14:55:45;6.25;;;1.70;;
16906;SDS011;8570;52.380;4.654;2023-07-29T15:00:47;4.75;;;2.10;;
16906;SDS011;8570;52.380;4.654;2023-07-29T15:05:54;6.47;;;2.33;;
16906;SDS011;8570;52.380;4.654;2023-07-29T15:11:01;4.88;;;2.15;;
16906;SDS011;8570;52.380;4.654;2023-07-29T15:16:05;5.10;;;2.17;;
16906;SDS011;8570;52.380;4.654;2023-07-29T15:21:08;9.20;;;2.25;;
16906;SDS011;8570;52.380;4.654;2023-07-29T15:26:10;6.35;;;2.00;;
16906;SDS011;8570;52.380;4.654;2023-07-29T15:31:12;4.70;;;2.10;;
16906;SDS011;8570;52.380;4.654;2023-07-29T15:36:16;4.55;;;2.20;;
16906;SDS011;8570;52.380;4.654;2023-07-29T15:41:19;5.35;;;1.98;;
16906;SDS011;8570;52.380;4.654;2023-07-29T15:46:21;4.80;;;2.35;;
16906;SDS011;8570;52.380;4.654;2023-07-29T15:51:24;4.57;;;2.20;;
16906;SDS011;8570;52.380;4.654;2023-07-29T15:56:26;7.10;;;2.55;;
16906;SDS011;8570;52.380;4.654;2023-07-29T16:01:28;8.27;;;1.92;;
16906;SDS011;8570;52.380;4.654;2023-07-29T16:06:34;5.72;;;2.40;;
16906;SDS011;8570;52.380;4.654;2023-07-29T16:11:38;10.30;;;2.53;;
16906;SDS011;8570;52.380;4.654;2023-07-29T16:16:40;8.00;;;2.33;;
16906;SDS011;8570;52.380;4.654;2023-07-29T16:21:44;10.25;;;2.70;;
16906;SDS011;8570;52.380;4.654;2023-07-29T16:26:46;11.32;;;2.50;;
16906;SDS011;8570;52.380;4.654;2023-07-29T16:31:48;8.93;;;2.85;;
16906;SDS011;8570;52.380;4.654;2023-07-29T16:36:51;15.77;;;2.67;;
16906;SDS011;8570;52.380;4.654;2023-07-29T16:41:53;7.32;;;2.97;;
16906;SDS011;8570;52.380;4.654;2023-07-29T16:46:55;6.75;;;2.42;;
16906;SDS011;8570;52.380;4.654;2023-07-29T16:51:58;12.40;;;3.08;;
16906;SDS011;8570;52.380;4.654;2023-07-29T16:57:00;10.30;;;3.10;;
16906;SDS011;8570;52.380;4.654;2023-07-29T17:02:02;10.02;;;3.30;;
16906;SDS011;8570;52.380;4.654;2023-07-29T17:07:07;10.75;;;3.20;;
16906;SDS011;8570;52.380;4.654;2023-07-29T17:12:09;10.93;;;4.18;;
16906;SDS011;8570;52.380;4.654;2023-07-29T17:17:11;12.80;;;4.20;;
16906;SDS011;8570;52.380;4.654;2023-07-29T17:22:25;12.55;;;3.40;;
16906;SDS011;8570;52.380;4.654;2023-07-29T17:27:27;16.83;;;3.85;;
16906;SDS011;8570;52.380;4.654;2023-07-29T17:32:44;16.27;;;3.83;;
16906;SDS011;8570;52.380;4.654;2023-07-29T17:37:47;15.02;;;4.38;;
16906;SDS011;8570;52.380;4.654;2023-07-29T17:42:49;14.00;;;4.13;;
16906;SDS011;8570;52.380;4.654;2023-07-29T17:47:51;18.83;;;4.50;;
16906;SDS011;8570;52.380;4.654;2023-07-29T17:52:55;15.60;;;4.30;;
16906;SDS011;8570;52.380;4.654;2023-07-29T17:57:58;15.43;;;4.32;;
16906;SDS011;8570;52.380;4.654;2023-07-29T18:03:00;18.25;;;5.15;;
16906;SDS011;8570;52.380;4.654;2023-07-29T18:08:03;17.48;;;4.80;;
16906;SDS011;8570;52.380;4.654;2023-07-29T18:13:05;23.27;;;4.65;;
16906;SDS011;8570;52.380;4.654;2023-07-29T18:18:07;20.45;;;3.95;;
16906;SDS011;8570;52.380;4.654;2023-07-29T18:23:11;15.50;;;4.13;;
16906;SDS011;8570;52.380;4.654;2023-07-29T18:28:15;18.45;;;5.32;;
16906;SDS011;8570;52.380;4.654;2023-07-29T18:33:17;19.10;;;4.80;;
16906;SDS011;8570;52.380;4.654;2023-07-29T18:38:20;18.02;;;5.00;;
16906;SDS011;8570;52.380;4.654;2023-07-29T18:43:25;20.45;;;4.85;;
16906;SDS011;8570;52.380;4.654;2023-07-29T18:48:27;16.67;;;4.68;;
16906;SDS011;8570;52.380;4.654;2023-07-29T18:53:30;17.25;;;4.70;;
16906;SDS011;8570;52.380;4.654;2023-07-29T18:58:35;20.45;;;5.50;;
16906;SDS011;8570;52.380;4.654;2023-07-29T19:03:38;22.45;;;4.75;;
16906;SDS011;8570;52.380;4.654;2023-07-29T19:08:43;18.77;;;5.38;;
16906;SDS011;8570;52.380;4.654;2023-07-29T19:13:45;18.42;;;5.22;;
16906;SDS011;8570;52.380;4.654;2023-07-29T19:18:47;20.83;;;4.95;;
16906;SDS011;8570;52.380;4.654;2023-07-29T19:23:51;20.17;;;5.53;;
16906;SDS011;8570;52.380;4.654;2023-07-29T19:28:53;23.67;;;4.95;;
16906;SDS011;8570;52.380;4.654;2023-07-29T19:33:55;25.23;;;5.72;;
16906;SDS011;8570;52.380;4.654;2023-07-29T19:38:58;20.60;;;5.32;;
16906;SDS011;8570;52.380;4.654;2023-07-29T19:44:00;23.00;;;5.20;;
16906;SDS011;8570;52.380;4.654;2023-07-29T19:49:02;28.60;;;6.72;;
16906;SDS011;8570;52.380;4.654;2023-07-29T19:54:05;26.63;;;6.40;;
16906;SDS011;8570;52.380;4.654;2023-07-29T19:59:07;23.38;;;6.38;;
16906;SDS011;8570;52.380;4.654;2023-07-29T20:04:09;25.23;;;6.03;;
16906;SDS011;8570;52.380;4.654;2023-07-29T20:09:13;33.80;;;7.22;;
16906;SDS011;8570;52.380;4.654;2023-07-29T20:14:15;25.30;;;5.15;;
16906;SDS011;8570;52.380;4.654;2023-07-29T20:19:17;20.65;;;5.97;;
16906;SDS011;8570;52.380;4.654;2023-07-29T20:24:20;26.83;;;6.00;;
16906;SDS011;8570;52.380;4.654;2023-07-29T20:29:23;24.17;;;6.43;;
16906;SDS011;8570;52.380;4.654;2023-07-29T20:34:26;23.50;;;5.53;;
16906;SDS011;8570;52.380;4.654;2023-07-29T20:39:31;25.25;;;5.68;;
16906;SDS011;8570;52.380;4.654;2023-07-29T20:44:33;28.30;;;5.60;;
16906;SDS011;8570;52.380;4.654;2023-07-29T20:49:35;26.63;;;5.72;;
16906;SDS011;8570;52.380;4.654;2023-07-29T20:54:38;27.40;;;6.20;;
16906;SDS011;8570;52.380;4.654;2023-07-29T20:59:40;28.75;;;5.93;;
16906;SDS011;8570;52.380;4.654;2023-07-29T21:04:42;25.35;;;5.68;;
16906;SDS011;8570;52.380;4.654;2023-07-29T21:09:46;27.33;;;6.50;;
16906;SDS011;8570;52.380;4.654;2023-07-29T21:14:48;31.65;;;5.72;;
16906;SDS011;8570;52.380;4.654;2023-07-29T21:19:50;30.80;;;6.80;;
16906;SDS011;8570;52.380;4.654;2023-07-29T21:24:53;30.98;;;5.88;;
16906;SDS011;8570;52.380;4.654;2023-07-29T21:29:55;27.23;;;6.55;;
16906;SDS011;8570;52.380;4.654;2023-07-29T21:34:57;26.38;;;5.60;;
16906;SDS011;8570;52.380;4.654;2023-07-29T21:40:01;28.40;;;5.70;;
16906;SDS011;8570;52.380;4.654;2023-07-29T21:45:04;25.05;;;5.85;;
16906;SDS011;8570;52.380;4.654;2023-07-29T21:50:07;25.67;;;5.72;;
16906;SDS011;8570;52.380;4.654;2023-07-29T21:55:11;20.77;;;5.38;;
16906;SDS011;8570;52.380;4.654;2023-07-29T22:00:13;21.63;;;5.32;;
16906;SDS011;8570;52.380;4.654;2023-07-29T22:05:16;22.35;;;6.03;;
16906;SDS011;8570;52.380;4.654;2023-07-29T22:10:19;30.00;;;6.18;;
16906;SDS011;8570;52.380;4.654;2023-07-29T22:15:21;34.95;;;6.13;;
16906;SDS011;8570;52.380;4.654;2023-07-29T22:20:26;25.38;;;5.57;;
16906;SDS011;8570;52.380;4.654;2023-07-29T22:25:32;24.38;;;5.43;;
16906;SDS011;8570;52.380;4.654;2023-07-29T22:30:34;23.98;;;6.20;;
16906;SDS011;8570;52.380;4.654;2023-07-29T22:35:37;22.27;;;5.28;;
16906;SDS011;8570;52.380;4.654;2023-07-29T22:40:49;27.17;;;6.22;;
16906;SDS011;8570;52.380;4.654;2023-07-29T22:45:53;19.88;;;5.13;;
16906;SDS011;8570;52.380;4.654;2023-07-29T22:50:57;24.38;;;5.97;;
16906;SDS011;8570;52.380;4.654;2023-07-29T22:56:01;32.05;;;5.57;;
16906;SDS011;8570;52.380;4.654;2023-07-29T23:01:03;35.10;;;6.63;;
16906;SDS011;8570;52.380;4.654;2023-07-29T23:06:05;26.98;;;6.18;;
16906;SDS011;8570;52.380;4.654;2023-07-29T23:11:08;25.20;;;5.35;;
16906;SDS011;8570;52.380;4.654;2023-07-29T23:16:10;27.42;;;6.03;;
16906;SDS011;8570;52.380;4.654;2023-07-29T23:21:12;29.13;;;5.50;;
16906;SDS011;8570;52.380;4.654;2023-07-29T23:26:16;22.08;;;5.63;;
16906;SDS011;8570;52.380;4.654;2023-07-29T23:31:18;27.42;;;6.28;;
16906;SDS011;8570;52.380;4.654;2023-07-29T23:36:20;24.13;;;5.85;;
16906;SDS011;8570;52.380;4.654;2023-07-29T23:41:23;21.38;;;5.60;;
16906;SDS011;8570;52.380;4.654;2023-07-29T23:46:35;26.00;;;5.82;;
16906;SDS011;8570;52.380;4.654;2023-07-29T23:51:37;26.98;;;5.93;;
16906;SDS011;8570;52.380;4.654;2023-07-29T23:56:40;22.20;;;5.65;;
